EGHHEGTE

Guest
Details From EGHH - Bournemouth
To EGTE - Exeter
Flight Number -
Tags Routegen Generated
Created
Modified
Stats Distance 59 nm / 109 km
Max Altitude 100 ft / 30 m
Waypoints 7
Social Downloads 2
Likes 0
Share VATSIM

Download

Looking for another format? Having issues loading an existing format? Contact us
Advertisement - Login to hide

Notes

Departing runway 25 EGHH. Arriving runway 7 EGTE.

Route

EGHH +50.76_-001.97 +50.76_-002.06 +50.76_-002.63 +50.75_-003.20 +50.75_-003.29 EGTE

ID Type Via Altitude Latitude Longitude Leg Dist Tot Dist Heading (true) Name
O EGHH APT - 0 ft / 0 m 50.77751˚ -1.85792˚ - 0 nm - -
+50.76_-001.97 LATLON - 100 ft / 30 m 50.75908˚ -1.96857˚ 4 nm 4 nm 255° / 255° -
+50.76_-002.06 LATLON - 100 ft / 30 m 50.76438˚ -2.05971˚ 3 nm 7 nm 275° / 275° -
+50.76_-002.63 LATLON - 100 ft / 30 m 50.75603˚ -2.62860˚ 21 nm 29 nm 269° / 268° -
+50.75_-003.20 LATLON - 100 ft / 30 m 50.74768˚ -3.19749˚ 21 nm 51 nm 269° / 268° -
+50.75_-003.29 LATLON - 100 ft / 30 m 50.75387˚ -3.28847˚ 3 nm 54 nm 276° / 276° -
O EGTE APT - 0 ft / 0 m 50.73653˚ -3.39950˚ 4 nm 58 nm 256° / 256° -

Altitude Profile

Advertisement - Login to hide

EGHH

Details ICAO EGHH (BOH)
Name Bournemouth
Region United Kingdom
Timezone Europe/London (UTC+0.0)
Stats Elevation 38 ft / 12 m (AMSL)
Location 50.780065° -1.842533°
Runways 1
Magnetic Variation 0.963° W

METAR

EGHH 121920Z 19004KT 9999 FEW032 06/04 Q1008

Decode

TAF

Not found

Departure Runways

ID Width Length Bearing (true) Bearing (mag) Surface Threshold Offset Overrun Length
08 151 ft / 46 m 7,440 ft / 2,268 m 75.27° 76.23° Asphalt 1,424 ft / 434 m 0 ft / 0 m
26 151 ft / 46 m 7,440 ft / 2,268 m 255.29° 256.25° Asphalt 0 ft / 0 m 328 ft / 100 m

EGTE

Details ICAO EGTE (EXT)
Name Exeter
Region United Kingdom
Timezone Europe/London (UTC+0.0)
Stats Elevation 102 ft / 31 m (AMSL)
Location 50.734260° -3.414000°
Runways 1
Magnetic Variation 1.514° W

METAR

EGTE 121920Z 19008KT 9999 SCT022 SCT045 06/05 Q1007

Decode

TAF

Not found

Destination Runways

ID Width Length Bearing (true) Bearing (mag) Surface Threshold Offset Overrun Length
08 151 ft / 46 m 6,666 ft / 2,032 m 76.09° 77.60° Asphalt 0 ft / 0 m 0 ft / 0 m
26 151 ft / 46 m 6,666 ft / 2,032 m 256.11° 257.62° Asphalt 0 ft / 0 m 0 ft / 0 m

Approach Navaids

Runway Type Ident Frequency Range Bearing (true) Bearing (mag) Slope Elevation
08 Localiser IET 109.90 MHz 18 nm / 33 km 76.11° 77.63° - 102 ft / 31 m (AMSL)
08 Glidescope IET 109.90 MHz 10 nm / 19 km 76.10° 77.61° 3.00° 50 ft / 15 m (AMSL)
08 DME IET 109.90 MHz 18 nm / 33 km - - - 102 ft / 31 m (AMSL)
26 Localiser IXR 109.90 MHz 18 nm / 33 km 256.10° 257.61° - 102 ft / 31 m (AMSL)
26 Glidescope IXR 109.90 MHz 10 nm / 19 km 256.10° 257.61° 3.50° 58 ft / 18 m (AMSL)
26 DME IXR 109.90 MHz 18 nm / 33 km - - - 102 ft / 31 m (AMSL)

Popular Alternatives